createdAt,value
2022-08-27T00:02:09.832Z,78.73
2022-08-27T00:04:39.277Z,78.64
2022-08-27T00:07:08.445Z,78.60
2022-08-27T00:09:37.726Z,78.75
2022-08-27T00:12:08.448Z,78.89
2022-08-27T00:14:38.602Z,79.06
2022-08-27T00:17:07.816Z,79.28
2022-08-27T00:19:36.749Z,79.33
2022-08-27T00:22:06.469Z,79.30
2022-08-27T00:24:36.139Z,79.23
2022-08-27T00:27:17.283Z,79.03
2022-08-27T00:29:47.112Z,78.87
2022-08-27T00:32:16.178Z,78.72
2022-08-27T00:34:44.222Z,78.60
2022-08-27T00:37:12.130Z,78.42
2022-08-27T00:39:39.901Z,78.25
2022-08-27T00:42:08.312Z,78.55
2022-08-27T00:44:36.450Z,78.96
2022-08-27T00:47:13.059Z,78.95
2022-08-27T00:49:57.282Z,78.85
2022-08-27T00:52:32.354Z,78.45
2022-08-27T00:55:14.907Z,78.88
2022-08-27T00:57:47.999Z,79.24
2022-08-27T01:00:18.723Z,79.20
2022-08-27T01:02:47.659Z,79.26
2022-08-27T01:05:25.372Z,79.40
2022-08-27T01:07:59.404Z,79.28
2022-08-27T01:10:30.381Z,79.27
2022-08-27T01:12:58.634Z,79.33
2022-08-27T01:15:29.013Z,79.46
2022-08-27T01:17:58.602Z,79.51
2022-08-27T01:20:34.932Z,79.39
2022-08-27T01:23:55.322Z,79.67
2022-08-27T01:26:23.505Z,79.88
2022-08-27T01:28:53.104Z,79.76
2022-08-27T01:31:20.939Z,80.06
2022-08-27T01:34:03.682Z,80.05
2022-08-27T01:36:32.135Z,80.17
2022-08-27T01:39:00.693Z,80.44
2022-08-27T01:41:28.480Z,80.41
2022-08-27T01:43:56.765Z,80.42
2022-08-27T01:46:28.594Z,80.47
2022-08-27T01:48:56.415Z,80.50
2022-08-27T01:51:24.242Z,80.59
2022-08-27T01:53:51.935Z,80.46
2022-08-27T01:56:19.857Z,80.56
2022-08-27T01:58:47.560Z,80.61
2022-08-27T02:01:19.473Z,80.92
2022-08-27T02:03:48.392Z,80.69
2022-08-27T02:06:16.222Z,80.49
2022-08-27T02:08:43.986Z,80.49
2022-08-27T02:11:12.351Z,80.46
2022-08-27T02:13:40.273Z,80.38
2022-08-27T02:16:09.031Z,80.29
2022-08-27T02:18:38.411Z,80.28
2022-08-27T02:21:10.386Z,80.34
2022-08-27T02:23:38.352Z,80.18
2022-08-27T02:26:06.354Z,80.04
2022-08-27T02:28:35.871Z,79.93
2022-08-27T02:31:05.022Z,79.84
2022-08-27T02:33:35.001Z,79.69
2022-08-27T02:36:03.770Z,79.71
2022-08-27T02:38:34.173Z,79.70
2022-08-27T02:41:01.915Z,79.72
2022-08-27T02:43:29.765Z,79.77
2022-08-27T02:45:57.482Z,79.70
2022-08-27T02:48:25.541Z,79.90
2022-08-27T02:50:54.737Z,80.17
2022-08-27T02:53:22.397Z,80.34
2022-08-27T02:55:52.237Z,80.50
2022-08-27T02:58:19.914Z,80.60
2022-08-27T03:00:48.303Z,80.68
2022-08-27T03:03:16.547Z,80.87
2022-08-27T03:05:45.291Z,80.99
2022-08-27T03:08:13.122Z,81.06
2022-08-27T03:10:41.893Z,81.11
2022-08-27T03:13:09.680Z,81.23
2022-08-27T03:15:37.467Z,81.21
2022-08-27T03:18:21.552Z,81.44
2022-08-27T03:20:55.964Z,81.59
2022-08-27T03:23:32.845Z,81.56
2022-08-27T03:26:09.967Z,81.68
2022-08-27T03:28:38.038Z,81.70
2022-08-27T03:31:15.875Z,81.38
2022-08-27T03:33:43.577Z,81.56
2022-08-27T03:36:14.129Z,81.45
2022-08-27T03:38:41.873Z,81.44
2022-08-27T03:41:09.935Z,81.55
2022-08-27T03:43:37.632Z,81.75
2022-08-27T03:46:08.606Z,81.79
2022-08-27T03:48:36.645Z,81.79
2022-08-27T03:51:09.748Z,81.78
2022-08-27T03:53:40.549Z,82.00
2022-08-27T03:56:09.121Z,82.20
2022-08-27T03:58:38.991Z,82.11
2022-08-27T04:01:08.472Z,81.99
2022-08-27T04:03:37.413Z,82.00
2022-08-27T04:06:05.504Z,82.20
2022-08-27T04:08:33.326Z,82.41
2022-08-27T04:11:05.894Z,82.20
2022-08-27T04:13:33.721Z,82.31
2022-08-27T04:16:02.061Z,82.53
2022-08-27T04:18:29.799Z,82.60
2022-08-27T04:20:57.905Z,82.72
2022-08-27T04:23:25.624Z,82.77
2022-08-27T04:25:53.312Z,82.68
2022-08-27T04:28:21.312Z,82.62
2022-08-27T04:30:49.250Z,82.80
2022-08-27T04:33:17.369Z,83.13
2022-08-27T04:35:45.082Z,83.14
2022-08-27T04:38:12.990Z,82.99
2022-08-27T04:40:59.170Z,83.07
2022-08-27T04:43:28.251Z,83.16
2022-08-27T04:45:56.563Z,83.25
2022-08-27T04:48:25.721Z,83.22
2022-08-27T04:50:53.663Z,83.17
2022-08-27T04:53:22.113Z,83.14
2022-08-27T04:55:55.933Z,83.05
2022-08-27T04:58:26.335Z,83.17
2022-08-27T05:01:01.611Z,83.37
2022-08-27T05:03:29.416Z,83.38
2022-08-27T05:06:04.802Z,83.25
2022-08-27T05:08:34.025Z,83.38
2022-08-27T05:11:02.365Z,83.44
2022-08-27T05:13:30.351Z,83.49
2022-08-27T05:16:08.339Z,83.61
2022-08-27T05:18:47.693Z,83.49
2022-08-27T05:21:34.094Z,83.43
2022-08-27T05:24:04.237Z,83.46
2022-08-27T05:26:34.949Z,83.53
2022-08-27T05:29:06.308Z,83.64
2022-08-27T05:31:34.988Z,83.84
2022-08-27T05:34:10.744Z,83.78
2022-08-27T05:36:47.835Z,83.89
2022-08-27T05:39:17.808Z,83.78
2022-08-27T05:41:45.674Z,83.79
2022-08-27T05:47:03.654Z,83.83
2022-08-27T05:49:31.799Z,83.73
2022-08-27T05:51:59.542Z,83.78
2022-08-27T05:54:27.287Z,83.80
2022-08-27T05:56:55.180Z,83.78
2022-08-27T05:59:45.994Z,83.83
2022-08-27T06:02:13.798Z,83.90
2022-08-27T06:04:41.682Z,83.93
2022-08-27T06:07:10.593Z,83.83
2022-08-27T06:09:39.247Z,83.66
2022-08-27T06:12:08.021Z,83.61
2022-08-27T06:14:37.337Z,83.73
2022-08-27T06:17:06.409Z,83.66
2022-08-27T06:19:36.281Z,83.41
2022-08-27T06:22:10.057Z,83.14
2022-08-27T06:24:41.870Z,82.85
2022-08-27T06:27:14.003Z,82.93
2022-08-27T06:29:43.329Z,82.88
2022-08-27T06:32:13.125Z,82.90
2022-08-27T06:34:41.051Z,82.78
2022-08-27T06:37:09.290Z,82.66
2022-08-27T06:39:39.721Z,82.70
2022-08-27T06:42:11.963Z,82.48
2022-08-27T06:44:42.071Z,82.35
2022-08-27T06:47:10.199Z,82.16
2022-08-27T06:49:41.308Z,81.80
2022-08-27T06:52:11.610Z,81.54
2022-08-27T06:54:40.266Z,81.31
2022-08-27T06:57:08.040Z,81.25
2022-08-27T06:59:35.985Z,81.13
2022-08-27T07:02:04.218Z,80.95
2022-08-27T07:04:33.022Z,80.90
2022-08-27T07:07:02.706Z,81.01
2022-08-27T07:09:34.400Z,81.01
2022-08-27T07:12:02.469Z,80.99
2022-08-27T07:14:35.677Z,80.83
2022-08-27T07:17:11.189Z,80.47
2022-08-27T07:19:44.355Z,80.54
2022-08-27T07:22:13.074Z,80.08
2022-08-27T07:24:41.093Z,79.91
2022-08-27T07:27:09.610Z,79.67
2022-08-27T07:29:37.408Z,79.52
2022-08-27T07:32:05.473Z,79.47
2022-08-27T07:34:33.153Z,79.53
2022-08-27T07:37:00.847Z,79.42
2022-08-27T07:39:28.589Z,79.10
2022-08-27T07:42:16.621Z,79.17
2022-08-27T07:44:44.471Z,78.91
2022-08-27T07:47:12.297Z,78.82
2022-08-27T07:49:41.096Z,78.93
2022-08-27T07:52:08.825Z,78.99
2022-08-27T07:54:36.596Z,78.53
2022-08-27T07:57:04.875Z,78.03
2022-08-27T07:59:33.087Z,78.28
2022-08-27T08:02:01.082Z,78.27
2022-08-27T08:04:29.021Z,77.86
2022-08-27T08:06:56.854Z,77.07
2022-08-27T08:09:24.984Z,76.61
2022-08-27T08:11:54.050Z,76.78
2022-08-27T08:14:22.473Z,76.21
2022-08-27T08:16:50.630Z,75.62
2022-08-27T08:19:18.422Z,75.24
2022-08-27T08:21:46.093Z,75.04
2022-08-27T08:24:13.774Z,74.97
2022-08-27T08:26:42.041Z,75.04
2022-08-27T08:29:16.662Z,75.03
2022-08-27T08:31:50.243Z,73.95
2022-08-27T08:34:19.983Z,72.77
2022-08-27T08:36:53.982Z,72.99
2022-08-27T08:39:24.160Z,72.89
2022-08-27T08:41:57.286Z,72.54
2022-08-27T08:44:41.295Z,72.36
2022-08-27T08:47:50.589Z,71.77
2022-08-27T08:50:30.592Z,70.89
2022-08-27T08:53:11.638Z,70.23
2022-08-27T08:55:48.790Z,70.17
2022-08-27T08:58:40.610Z,70.29
2022-08-27T09:01:10.210Z,70.88
2022-08-27T09:03:42.137Z,70.52
2022-08-27T09:06:27.714Z,69.97
2022-08-27T09:08:56.148Z,69.89
2022-08-27T09:11:51.711Z,69.42
2022-08-27T09:14:32.233Z,68.65
2022-08-27T09:17:02.577Z,68.88
2022-08-27T09:19:37.151Z,67.57
2022-08-27T09:22:38.331Z,66.87
2022-08-27T09:25:25.524Z,67.30
2022-08-27T09:27:57.545Z,67.04
2022-08-27T09:30:32.059Z,65.11
2022-08-27T09:33:04.394Z,66.38
2022-08-27T09:35:42.234Z,66.38
2022-08-27T09:38:10.839Z,65.59
2022-08-27T09:40:47.073Z,63.11
2022-08-27T09:43:17.446Z,64.73
2022-08-27T09:45:59.678Z,64.50
2022-08-27T09:48:32.489Z,63.79
2022-08-27T09:51:21.742Z,62.78
2022-08-27T09:53:57.468Z,62.85
2022-08-27T09:56:39.160Z,61.61
2022-08-27T09:59:24.655Z,61.15
2022-08-27T10:02:04.288Z,62.16
2022-08-27T10:04:51.398Z,63.27
2022-08-27T10:07:53.805Z,62.13
2022-08-27T10:10:38.475Z,61.78
2022-08-27T10:13:20.379Z,58.79
2022-08-27T10:16:09.762Z,60.19
2022-08-27T10:18:56.717Z,60.67
2022-08-27T10:21:45.792Z,61.20
2022-08-27T10:25:17.045Z,61.22
2022-08-27T10:27:59.500Z,60.24
2022-08-27T10:31:00.529Z,59.32
2022-08-27T10:34:22.217Z,58.66
2022-08-27T10:37:16.055Z,57.65
2022-08-27T10:40:03.508Z,58.32
2022-08-27T10:43:17.070Z,57.32
2022-08-27T10:46:04.157Z,57.37
2022-08-27T10:48:53.974Z,56.60
2022-08-27T10:51:53.698Z,56.59
2022-08-27T10:54:31.900Z,55.95
2022-08-27T10:57:40.255Z,54.30
2022-08-27T11:00:21.199Z,54.49
2022-08-27T11:02:58.618Z,54.92
2022-08-27T11:05:36.972Z,54.89
2022-08-27T11:08:19.738Z,54.26
2022-08-27T11:10:53.566Z,53.15
2022-08-27T11:13:33.777Z,53.07
2022-08-27T11:16:10.703Z,53.50
2022-08-27T11:19:02.689Z,53.18
2022-08-27T11:22:07.114Z,52.40
2022-08-27T11:24:59.750Z,52.10
2022-08-27T11:27:32.808Z,51.87
2022-08-27T11:30:29.227Z,51.77
2022-08-27T11:33:21.134Z,51.98
2022-08-27T11:36:32.005Z,49.88
2022-08-27T11:39:33.737Z,52.06
2022-08-27T11:42:14.073Z,50.29
2022-08-27T11:44:50.771Z,51.09
2022-08-27T11:47:26.245Z,49.74
2022-08-27T11:50:01.386Z,50.62
2022-08-27T11:52:41.803Z,51.35
2022-08-27T11:55:21.654Z,51.69
2022-08-27T11:58:09.454Z,52.11
2022-08-27T12:00:42.097Z,52.86
2022-08-27T12:03:19.016Z,53.27
2022-08-27T12:05:54.140Z,53.66
2022-08-27T12:08:21.837Z,53.30
2022-08-27T12:11:27.484Z,52.35
2022-08-27T12:14:32.281Z,52.30
2022-08-27T12:17:08.228Z,51.87
2022-08-27T12:19:57.030Z,50.29
2022-08-27T12:23:09.576Z,49.34
2022-08-27T12:25:37.323Z,49.94
2022-08-27T12:28:09.288Z,48.56
2022-08-27T12:30:41.387Z,47.21
2022-08-27T12:33:26.523Z,48.29
2022-08-27T12:35:58.013Z,48.02
2022-08-27T12:38:31.931Z,47.44
2022-08-27T12:41:04.052Z,48.39
2022-08-27T12:43:35.538Z,47.87
2022-08-27T12:46:06.676Z,48.78
2022-08-27T12:48:41.873Z,48.91
2022-08-27T12:51:31.246Z,48.71
2022-08-27T12:54:13.176Z,47.98
2022-08-27T12:56:58.889Z,49.23
2022-08-27T13:00:00.052Z,48.77
2022-08-27T13:02:27.650Z,49.90
2022-08-27T13:04:55.847Z,50.40
2022-08-27T13:07:38.293Z,49.71
2022-08-27T13:10:18.409Z,50.44
2022-08-27T13:12:48.977Z,51.24
2022-08-27T13:15:19.974Z,50.73
2022-08-27T13:17:49.457Z,50.31
2022-08-27T13:20:24.587Z,50.38
2022-08-27T13:22:54.252Z,49.48
2022-08-27T13:25:36.772Z,49.42
2022-08-27T13:28:13.250Z,49.03
2022-08-27T13:30:45.968Z,48.65
2022-08-27T13:33:22.169Z,47.30
2022-08-27T13:35:51.228Z,48.16
2022-08-27T13:38:22.524Z,48.87
2022-08-27T13:40:57.980Z,48.58
2022-08-27T13:43:43.529Z,49.01
2022-08-27T13:46:21.478Z,47.92
2022-08-27T13:48:54.882Z,47.70
2022-08-27T13:51:33.351Z,47.32
2022-08-27T13:54:12.943Z,47.16
2022-08-27T13:56:48.974Z,46.83
2022-08-27T13:59:20.036Z,47.35
2022-08-27T14:02:31.867Z,47.11
2022-08-27T14:05:28.067Z,47.15
2022-08-27T14:08:13.325Z,46.61
2022-08-27T14:10:47.697Z,47.41
2022-08-27T14:13:23.670Z,47.54
2022-08-27T14:16:00.257Z,46.86
2022-08-27T14:18:57.415Z,47.57
2022-08-27T14:21:22.702Z,47.51
2022-08-27T14:23:52.359Z,47.94
2022-08-27T14:26:20.377Z,47.99
2022-08-27T14:28:48.429Z,48.93
2022-08-27T14:31:16.582Z,48.14
2022-08-27T14:33:47.417Z,48.20
2022-08-27T14:36:16.313Z,48.37
2022-08-27T14:38:48.085Z,48.13
2022-08-27T14:41:17.194Z,47.06
2022-08-27T14:43:49.757Z,47.49
2022-08-27T14:46:30.070Z,47.09
2022-08-27T14:49:00.950Z,47.23
2022-08-27T14:51:32.159Z,45.05
2022-08-27T14:53:59.828Z,45.72
2022-08-27T14:56:27.578Z,45.85
2022-08-27T14:58:55.630Z,46.71
2022-08-27T15:01:26.131Z,45.98
2022-08-27T15:03:54.850Z,46.68
2022-08-27T15:06:23.994Z,47.05
2022-08-27T15:08:52.253Z,47.27
2022-08-27T15:11:28.051Z,46.86
2022-08-27T15:13:58.135Z,47.21
2022-08-27T15:16:31.361Z,47.49
2022-08-27T15:19:01.433Z,47.28
2022-08-27T15:21:31.073Z,47.14
2022-08-27T15:24:03.425Z,46.03
2022-08-27T15:26:31.627Z,45.44
2022-08-27T15:29:04.095Z,44.84
2022-08-27T15:31:34.886Z,44.53
2022-08-27T15:34:03.145Z,44.91
2022-08-27T15:36:30.850Z,44.46
2022-08-27T15:38:58.561Z,44.80
2022-08-27T15:41:29.286Z,45.28
2022-08-27T15:43:57.903Z,45.49
2022-08-27T15:46:26.563Z,45.97
2022-08-27T15:48:54.331Z,46.20
2022-08-27T15:51:29.067Z,46.02
2022-08-27T15:53:58.195Z,46.11
2022-08-27T15:56:29.456Z,45.46
2022-08-27T15:59:00.308Z,45.38
2022-08-27T16:01:35.843Z,45.60
2022-08-27T16:04:06.100Z,45.15
2022-08-27T16:06:34.969Z,44.69
2022-08-27T16:09:04.769Z,45.15
2022-08-27T16:11:32.641Z,45.61
2022-08-27T16:14:01.349Z,45.98
2022-08-27T16:16:32.408Z,45.93
2022-08-27T16:19:02.882Z,45.69
2022-08-27T16:21:31.102Z,45.55
2022-08-27T16:23:58.789Z,45.13
2022-08-27T16:26:26.501Z,45.22
2022-08-27T16:28:54.473Z,45.84
2022-08-27T16:31:22.252Z,46.22
2022-08-27T16:33:50.186Z,45.47
2022-08-27T16:36:18.482Z,44.93
2022-08-27T16:38:46.278Z,45.32
2022-08-27T16:41:14.265Z,45.23
2022-08-27T16:43:43.302Z,45.29
2022-08-27T16:46:11.098Z,45.29
2022-08-27T16:49:01.208Z,45.21
2022-08-27T16:51:34.522Z,45.03
2022-08-27T16:54:06.189Z,45.11
2022-08-27T16:56:37.770Z,45.04
2022-08-27T16:59:07.553Z,45.40
2022-08-27T17:01:35.399Z,44.77
2022-08-27T17:04:10.493Z,44.71
2022-08-27T17:06:44.709Z,44.64
2022-08-27T17:09:13.955Z,45.40
2022-08-27T17:11:43.532Z,45.62
2022-08-27T17:14:12.238Z,45.09
2022-08-27T17:16:41.593Z,45.03
2022-08-27T17:19:16.825Z,44.80
2022-08-27T17:21:46.051Z,45.25
2022-08-27T17:24:13.958Z,44.85
2022-08-27T17:26:41.674Z,44.55
2022-08-27T17:29:09.689Z,44.80
2022-08-27T17:31:41.629Z,45.13
2022-08-27T17:34:21.538Z,45.25
2022-08-27T17:36:51.928Z,45.62
2022-08-27T17:39:20.791Z,45.58
2022-08-27T17:41:52.626Z,45.70
2022-08-27T17:44:31.706Z,45.99
2022-08-27T17:47:05.825Z,46.11
2022-08-27T17:49:34.507Z,46.44
2022-08-27T17:52:09.634Z,46.41
2022-08-27T17:54:37.235Z,46.70
2022-08-27T17:57:16.401Z,47.18
2022-08-27T17:59:45.151Z,47.17
2022-08-27T18:02:22.132Z,47.45
2022-08-27T18:04:50.781Z,47.54
2022-08-27T18:07:19.423Z,47.70
2022-08-27T18:09:49.029Z,48.11
2022-08-27T18:12:21.692Z,48.30
2022-08-27T18:15:02.102Z,48.97
2022-08-27T18:17:30.215Z,50.09
2022-08-27T18:19:59.390Z,51.29
2022-08-27T18:22:27.900Z,52.42
2022-08-27T18:25:02.892Z,52.89
2022-08-27T18:27:34.019Z,53.56
2022-08-27T18:30:02.840Z,54.36
2022-08-27T18:32:31.078Z,55.03
2022-08-27T18:35:14.977Z,55.53
2022-08-27T18:37:42.676Z,56.17
2022-08-27T18:40:12.842Z,56.62
2022-08-27T18:42:41.209Z,56.92
2022-08-27T18:45:16.642Z,57.47
2022-08-27T18:47:45.279Z,58.10
2022-08-27T18:50:17.518Z,58.56
2022-08-27T18:52:49.974Z,59.15
2022-08-27T18:55:24.705Z,59.60
2022-08-27T18:57:52.491Z,60.07
2022-08-27T19:00:21.137Z,60.74
2022-08-27T19:02:53.476Z,61.15
2022-08-27T19:05:26.921Z,61.42
2022-08-27T19:07:58.175Z,61.44
2022-08-27T19:10:26.942Z,61.73
2022-08-27T19:12:55.030Z,61.98
2022-08-27T19:15:23.047Z,61.99
2022-08-27T19:17:57.371Z,62.14
2022-08-27T19:20:27.412Z,62.48
2022-08-27T19:22:55.813Z,62.87
2022-08-27T19:25:23.543Z,63.19
2022-08-27T19:27:52.693Z,63.31
2022-08-27T19:30:20.711Z,63.81
2022-08-27T19:32:48.416Z,64.00
2022-08-27T19:35:22.782Z,64.32
2022-08-27T19:37:53.261Z,64.37
2022-08-27T19:40:22.911Z,64.68
2022-08-27T19:42:51.118Z,64.80
2022-08-27T19:45:23.109Z,65.09
2022-08-27T19:47:53.040Z,65.53
2022-08-27T19:50:23.588Z,65.55
2022-08-27T19:52:52.399Z,65.85
2022-08-27T19:55:20.816Z,65.76
2022-08-27T19:57:49.914Z,65.91
2022-08-27T20:00:22.239Z,66.17
2022-08-27T20:02:50.755Z,66.28
2022-08-27T20:05:21.178Z,66.80
2022-08-27T20:07:52.752Z,66.88
2022-08-27T20:10:23.336Z,67.05
2022-08-27T20:13:00.818Z,67.20
2022-08-27T20:15:28.533Z,67.43
2022-08-27T20:17:59.197Z,67.68
2022-08-27T20:20:28.606Z,67.79
2022-08-27T20:22:57.234Z,67.91
2022-08-27T20:25:26.363Z,67.95
2022-08-27T20:27:54.616Z,68.34
2022-08-27T20:30:27.884Z,68.34
2022-08-27T20:32:57.183Z,68.61
2022-08-27T20:35:27.550Z,68.80
2022-08-27T20:37:55.370Z,68.88
2022-08-27T20:40:33.193Z,69.00
2022-08-27T20:43:01.910Z,69.12
2022-08-27T20:45:32.302Z,69.30
2022-08-27T20:48:00.860Z,69.39
2022-08-27T20:50:32.173Z,69.67
2022-08-27T20:53:00.738Z,69.71
2022-08-27T20:55:30.008Z,69.67
2022-08-27T20:58:16.160Z,69.88
2022-08-27T21:00:43.937Z,70.04
2022-08-27T21:03:15.003Z,70.30
2022-08-27T21:05:46.997Z,70.44
2022-08-27T21:08:18.653Z,70.60
2022-08-27T21:10:54.955Z,70.36
2022-08-27T21:13:24.794Z,70.35
2022-08-27T21:15:54.603Z,70.53
2022-08-27T21:18:29.952Z,70.59
2022-08-27T21:21:04.736Z,70.34
2022-08-27T21:23:35.446Z,70.29
2022-08-27T21:26:10.045Z,70.44
2022-08-27T21:28:41.578Z,70.40
2022-08-27T21:31:10.142Z,70.76
2022-08-27T21:33:39.667Z,70.70
2022-08-27T21:36:11.834Z,70.84
2022-08-27T21:38:40.710Z,70.99
2022-08-27T21:41:09.057Z,71.20
2022-08-27T21:43:37.425Z,71.15
2022-08-27T21:46:05.870Z,71.42
2022-08-27T21:48:34.026Z,71.46
2022-08-27T21:51:12.104Z,71.72
2022-08-27T21:53:41.026Z,71.88
2022-08-27T21:56:12.112Z,72.04
2022-08-27T21:58:40.722Z,71.96
2022-08-27T22:01:08.687Z,72.05
2022-08-27T22:03:36.854Z,72.20
2022-08-27T22:06:07.212Z,72.28
2022-08-27T22:08:35.175Z,72.15
2022-08-27T22:11:03.065Z,72.32
2022-08-27T22:13:32.693Z,72.59
2022-08-27T22:16:00.623Z,72.91
2022-08-27T22:18:28.813Z,73.20
2022-08-27T22:20:58.818Z,73.55
2022-08-27T22:23:27.524Z,73.71
2022-08-27T22:25:55.346Z,73.92
2022-08-27T22:28:23.462Z,74.18
2022-08-27T22:30:51.310Z,74.36
2022-08-27T22:33:19.068Z,74.14
2022-08-27T22:35:47.723Z,73.98
2022-08-27T22:38:15.669Z,74.35
2022-08-27T22:40:43.921Z,74.48
2022-08-27T22:43:12.534Z,74.71
2022-08-27T22:45:40.299Z,74.94
2022-08-27T22:48:08.256Z,75.25
2022-08-27T22:50:36.081Z,75.38
2022-08-27T22:53:04.292Z,75.61
2022-08-27T22:55:31.992Z,75.86
2022-08-27T22:58:02.047Z,75.85
2022-08-27T23:00:35.437Z,75.84
2022-08-27T23:03:07.135Z,76.06
2022-08-27T23:05:41.753Z,76.26
2022-08-27T23:08:14.103Z,76.21
2022-08-27T23:10:43.495Z,76.25
2022-08-27T23:13:13.298Z,76.36
2022-08-27T23:15:42.123Z,76.51
2022-08-27T23:18:10.377Z,76.59
2022-08-27T23:20:38.174Z,76.55
2022-08-27T23:23:07.967Z,76.72
2022-08-27T23:25:54.880Z,76.93
2022-08-27T23:28:23.490Z,77.00
2022-08-27T23:30:51.904Z,77.23
2022-08-27T23:33:20.077Z,77.35
2022-08-27T23:35:51.317Z,77.53
2022-08-27T23:38:20.139Z,77.42
2022-08-27T23:40:50.353Z,77.23
2022-08-27T23:43:18.440Z,77.39
2022-08-27T23:45:46.292Z,77.57
2022-08-27T23:48:14.293Z,77.74
2022-08-27T23:50:42.851Z,77.84
2022-08-27T23:53:11.838Z,77.83
2022-08-27T23:55:40.950Z,77.85
2022-08-27T23:58:09.897Z,77.92
